Main page
METAR-TAF:

METAR-TAF

Airports :

Kuusamo Airport

Kuusamo, Finland

latitude: 65-58N, longitude: 029-11E, elevation: 262 m

Current weather observation

The report was made 17 minutes ago, at 17:50 UTC
Wind 7 kt from the North/Northwest
Temperature 13°C
Humidity 72%
Pressure 1004 hPa
Visibility 10 km or more
no clouds below 1500 m and no cumulonimbus

METAR: EFKS 211750Z AUTO 34007KT CAVOK 13/08 Q1004

Time: 21:07 (18:07 UTC)


TAF: missing

Weather observations and forecasts of more than 4000 airports (METAR and TAF reports).

The available stations are represented by yellow and red dots on the map.

Hover mouse over dot to see the name of the station.

Then click to see weather observations and forecasts.

To change the map : click on the green buttons with a black cross to zoom in, on the green button with a dash to zoom out, or on the green arrows for adjacent maps.


METAR-TAF: